ENSL

Sleipner A Platform Heliport

Norway
METAR ENSL 180850Z 31020KT 9999 FEW025 08/02 Q1022 W07/S4
Observed Flight Rules
Dec-18 @ 08:50 UTC (14 minutes ago) Visual Flight Rules
Wind Visibility Clouds
310° at 20 knots 10,000+ meters
  • Few at 2,500' AGL
Temperatures Readings
Current 8°C / 46°F
Dewpoint 2°C / 36°F
Humidity 66%
Altimeter 30.18" Hg
Pressure 1022 hPa
Elevation 50
METAR ENSL 180850Z 31020KT 9999 FEW025 08/02 Q1022 W07/S4
Observed Flight Rules
Dec-18 @ 08:50 UTC
(14 minutes ago)
VFR
Wind Visibility
310° at 20 knots 10,000+ meters
Clouds
  • Few at 2,500' AGL
Temperature Dewpoint
8°C / 46°F 2°C / 36°F
Humidity Altimeter Pressure
66% 30.18" Hg 1022 hPa